createdAt,value
2019-02-05T00:00:00.486Z,41.15
2019-02-05T00:05:05.740Z,42.13
2019-02-05T00:10:10.930Z,41.85
2019-02-05T00:15:16.432Z,38.53
2019-02-05T00:20:20.531Z,41.18
2019-02-05T00:25:25.980Z,38.73
2019-02-05T00:30:34.040Z,42.75
2019-02-05T00:35:39.290Z,44.50
2019-02-05T00:40:43.412Z,42.48
2019-02-05T00:45:47.856Z,39.15
2019-02-05T00:50:53.014Z,42.65
2019-02-05T00:55:57.369Z,41.55
2019-02-05T01:01:01.398Z,42.90
2019-02-05T01:06:05.889Z,39.15
2019-02-05T01:11:10.341Z,42.03
2019-02-05T01:16:14.657Z,38.30
2019-02-05T01:21:19.743Z,43.55
2019-02-05T01:26:29.013Z,45.80
2019-02-05T01:31:29.663Z,41.80
2019-02-05T01:36:35.471Z,39.45
2019-02-05T01:41:39.376Z,44.20
2019-02-05T01:46:43.883Z,42.88
2019-02-05T01:51:48.808Z,44.20
2019-02-05T01:56:53.275Z,43.40
2019-02-05T02:01:57.102Z,45.03
2019-02-05T02:07:01.006Z,41.98
2019-02-05T02:12:07.373Z,46.77
2019-02-05T02:17:12.075Z,36.68
2019-02-05T02:22:20.679Z,35.65
2019-02-05T02:27:25.478Z,35.65
2019-02-05T02:32:29.928Z,37.58
2019-02-05T02:37:33.639Z,32.33
2019-02-05T02:42:37.464Z,34.38
2019-02-05T02:47:41.874Z,35.08
2019-02-05T02:52:45.586Z,37.90
2019-02-05T02:57:50.068Z,36.95
2019-02-05T03:02:53.980Z,38.33
2019-02-05T03:07:59.691Z,36.53
2019-02-05T03:13:03.690Z,35.25
2019-02-05T03:18:10.047Z,36.10
2019-02-05T03:23:15.316Z,36.38
2019-02-05T03:28:20.051Z,39.55
2019-02-05T03:33:26.923Z,36.93
2019-02-05T03:38:31.173Z,37.93
2019-02-05T03:43:36.714Z,34.85
2019-02-05T03:48:41.785Z,37.48
2019-02-05T03:53:50.995Z,35.48
2019-02-05T03:59:31.710Z,38.67
2019-02-05T04:05:28.692Z,36.73
2019-02-05T04:11:00.205Z,38.08
2019-02-05T04:16:47.032Z,34.70
2019-02-05T04:22:41.770Z,36.68
2019-02-05T04:28:21.667Z,35.58
2019-02-05T04:34:06.344Z,35.78
2019-02-05T04:39:53.469Z,35.10
2019-02-05T04:45:47.645Z,33.90
2019-02-05T04:51:44.642Z,38.05
2019-02-05T04:57:56.839Z,35.78
2019-02-05T05:03:44.841Z,34.70
2019-02-05T05:09:10.988Z,33.55
2019-02-05T05:14:14.975Z,30.40
2019-02-05T05:19:19.365Z,29.30
2019-02-05T05:24:23.792Z,31.48
2019-02-05T05:29:28.210Z,32.00
2019-02-05T05:34:34.591Z,32.88
2019-02-05T05:39:38.442Z,30.65
2019-02-05T05:44:42.293Z,34.38
2019-02-05T05:49:45.989Z,26.95
2019-02-05T05:54:49.667Z,23.85
2019-02-05T05:59:53.874Z,22.45
2019-02-05T06:04:57.573Z,24.20
2019-02-05T06:10:01.232Z,22.00
2019-02-05T06:15:07.234Z,24.12
2019-02-05T06:20:14.259Z,22.85
2019-02-05T06:25:18.432Z,23.65
2019-02-05T06:30:23.041Z,28.40
2019-02-05T06:35:27.460Z,25.72
2019-02-05T06:40:34.862Z,28.00
2019-02-05T06:45:41.475Z,24.43
2019-02-05T06:50:44.741Z,34.55
2019-02-05T06:55:48.765Z,32.35
2019-02-05T07:00:52.556Z,30.92
2019-02-05T07:05:56.532Z,30.23
2019-02-05T07:11:00.450Z,31.17
2019-02-05T07:16:04.310Z,20.30
2019-02-05T07:21:08.185Z,20.72
2019-02-05T07:26:12.395Z,18.90
2019-02-05T07:31:16.473Z,15.08
2019-02-05T07:36:20.857Z,15.28
2019-02-05T07:41:24.655Z,18.07
2019-02-05T07:46:28.650Z,17.15
2019-02-05T07:51:32.613Z,20.05
2019-02-05T07:56:36.520Z,20.23
2019-02-05T08:01:40.420Z,27.42
2019-02-05T08:06:44.201Z,52.27
2019-02-05T08:11:48.971Z,127.55
2019-02-05T08:16:52.893Z,42.05
2019-02-05T08:21:57.106Z,33.20
2019-02-05T08:27:02.268Z,30.12
2019-02-05T08:32:06.183Z,33.48
2019-02-05T08:37:10.315Z,38.75
2019-02-05T08:42:14.602Z,39.95
2019-02-05T08:47:18.873Z,38.98
2019-02-05T08:52:22.906Z,38.65
2019-02-05T08:57:26.895Z,35.17
2019-02-05T09:02:30.722Z,33.10
2019-02-05T09:07:34.546Z,31.12
2019-02-05T09:12:40.501Z,31.37
2019-02-05T09:17:44.334Z,33.98
2019-02-05T09:22:48.488Z,29.02
2019-02-05T09:27:52.597Z,33.45
2019-02-05T09:32:57.906Z,27.40
2019-02-05T09:38:02.105Z,28.52
2019-02-05T09:43:05.870Z,24.67
2019-02-05T09:48:10.062Z,27.52
2019-02-05T09:53:14.668Z,23.18
2019-02-05T09:58:18.701Z,25.72
2019-02-05T10:03:22.562Z,23.92
2019-02-05T10:08:27.519Z,22.67
2019-02-05T10:13:31.709Z,23.20
2019-02-05T10:18:36.414Z,21.30
2019-02-05T10:23:40.336Z,21.25
2019-02-05T10:28:45.046Z,20.92
2019-02-05T10:33:55.387Z,18.73
2019-02-05T10:38:58.123Z,17.42
2019-02-05T10:44:05.521Z,14.65
2019-02-05T10:49:09.221Z,17.40
2019-02-05T10:54:12.919Z,18.65
2019-02-05T10:59:20.442Z,15.78
2019-02-05T11:04:24.470Z,21.05
2019-02-05T11:09:28.461Z,16.50
2019-02-05T11:14:33.439Z,15.60
2019-02-05T11:19:39.013Z,16.10
2019-02-05T11:24:43.221Z,14.85
2019-02-05T11:29:49.086Z,14.60
2019-02-05T11:34:53.014Z,16.77
2019-02-05T11:39:57.624Z,19.25
2019-02-05T11:45:02.016Z,18.43
2019-02-05T11:50:10.356Z,16.15
2019-02-05T11:55:20.363Z,17.42
2019-02-05T12:00:44.171Z,15.45
2019-02-05T12:05:48.429Z,14.45
2019-02-05T12:10:53.273Z,15.50
2019-02-05T12:15:57.173Z,14.58
2019-02-05T12:21:01.263Z,14.70
2019-02-05T12:26:05.760Z,14.80
2019-02-05T12:31:09.635Z,19.40
2019-02-05T12:36:13.581Z,19.73
2019-02-05T12:41:18.449Z,20.50
2019-02-05T12:46:23.509Z,14.07
2019-02-05T12:51:27.481Z,13.98
2019-02-05T12:56:34.782Z,12.13
2019-02-05T13:01:38.805Z,107.75
2019-02-05T13:06:42.585Z,12.98
2019-02-05T13:11:50.269Z,8.25
2019-02-05T13:16:54.980Z,10.10
2019-02-05T13:22:00.623Z,14.53
2019-02-05T13:27:04.661Z,8.95
2019-02-05T13:32:08.445Z,5.53
2019-02-05T13:37:12.152Z,6.65
2019-02-05T13:42:16.755Z,9.70
2019-02-05T13:47:21.157Z,5.47
2019-02-05T13:52:24.889Z,8.33
2019-02-05T13:57:28.579Z,8.95
2019-02-05T14:02:32.386Z,6.53
2019-02-05T14:07:39.472Z,8.00
2019-02-05T14:12:45.251Z,10.40
2019-02-05T14:17:49.295Z,9.18
2019-02-05T14:22:54.177Z,9.63
2019-02-05T14:27:57.968Z,11.68
2019-02-05T14:33:01.910Z,10.20
2019-02-05T14:38:07.420Z,17.73
2019-02-05T14:43:12.282Z,12.75
2019-02-05T14:48:16.779Z,25.72
2019-02-05T14:53:20.484Z,41.40
2019-02-05T14:58:24.287Z,23.38
2019-02-05T15:03:28.253Z,28.80
2019-02-05T15:08:31.958Z,26.42
2019-02-05T15:13:35.997Z,28.17
2019-02-05T15:18:39.824Z,24.07
2019-02-05T15:23:43.712Z,35.98
2019-02-05T15:28:48.356Z,25.90
2019-02-05T15:33:58.004Z,22.50
2019-02-05T15:39:01.953Z,26.73
2019-02-05T15:44:08.552Z,22.75
2019-02-05T15:49:12.246Z,19.37
2019-02-05T15:54:16.189Z,20.08
2019-02-05T15:59:20.214Z,19.12
2019-02-05T16:04:24.110Z,20.43
2019-02-05T16:09:29.072Z,18.73
2019-02-05T16:14:32.871Z,18.77
2019-02-05T16:19:36.767Z,21.90
2019-02-05T16:24:41.507Z,29.45
2019-02-05T16:29:45.280Z,24.70
2019-02-05T16:34:49.254Z,23.07
2019-02-05T16:39:53.149Z,20.75
2019-02-05T16:44:57.190Z,19.77
2019-02-05T16:50:02.750Z,18.65
2019-02-05T16:55:07.188Z,19.67
2019-02-05T17:00:25.590Z,19.32
2019-02-05T17:05:32.880Z,15.95
2019-02-05T17:10:36.961Z,19.75
2019-02-05T17:15:41.087Z,19.20
2019-02-05T17:20:44.921Z,19.90
2019-02-05T17:25:48.783Z,20.35
2019-02-05T17:30:53.958Z,15.00
2019-02-05T17:35:58.326Z,20.08
2019-02-05T17:41:04.395Z,22.75
2019-02-05T17:46:08.775Z,26.02
2019-02-05T17:51:12.573Z,16.02
2019-02-05T17:56:16.438Z,21.23
2019-02-05T18:01:20.666Z,13.85
2019-02-05T18:06:25.199Z,17.60
2019-02-05T18:11:29.133Z,20.43
2019-02-05T18:16:32.951Z,21.73
2019-02-05T18:21:37.602Z,26.07
2019-02-05T18:26:41.461Z,19.25
2019-02-05T18:31:45.527Z,20.68
2019-02-05T18:36:49.976Z,21.35
2019-02-05T18:41:53.875Z,16.20
2019-02-05T18:46:58.468Z,18.07
2019-02-05T18:52:03.622Z,22.22
2019-02-05T18:57:07.815Z,15.75
2019-02-05T19:02:12.959Z,19.42
2019-02-05T19:07:17.685Z,20.12
2019-02-05T19:12:21.611Z,22.17
2019-02-05T19:17:25.506Z,13.62
2019-02-05T19:22:29.310Z,18.25
2019-02-05T19:27:33.687Z,21.87
2019-02-05T19:32:39.612Z,15.35
2019-02-05T19:37:43.940Z,16.15
2019-02-05T19:42:47.846Z,14.75
2019-02-05T19:47:52.026Z,20.68
2019-02-05T19:52:55.906Z,16.95
2019-02-05T19:58:00.207Z,16.60
2019-02-05T20:03:04.107Z,24.23
2019-02-05T20:08:09.052Z,16.23
2019-02-05T20:13:12.764Z,15.65
2019-02-05T20:18:16.643Z,13.68
2019-02-05T20:23:20.401Z,15.72
2019-02-05T20:28:24.448Z,14.15
2019-02-05T20:33:28.679Z,12.98
2019-02-05T20:38:32.870Z,15.45
2019-02-05T20:43:36.883Z,14.20
2019-02-05T20:48:41.162Z,16.00
2019-02-05T20:53:45.126Z,15.88
2019-02-05T20:58:52.513Z,17.42
2019-02-05T21:04:01.317Z,22.45
2019-02-05T21:09:26.179Z,16.23
2019-02-05T21:14:29.909Z,14.00
2019-02-05T21:19:37.093Z,16.27
2019-02-05T21:24:43.662Z,15.80
2019-02-05T21:29:49.217Z,12.93
2019-02-05T21:34:57.683Z,15.05
2019-02-05T21:40:02.865Z,15.80
2019-02-05T21:45:09.294Z,11.38
2019-02-05T21:50:16.550Z,14.30
2019-02-05T21:55:21.650Z,11.53
2019-02-05T22:00:29.213Z,14.43
2019-02-05T22:05:36.902Z,10.50
2019-02-05T22:10:41.486Z,14.98
2019-02-05T22:15:45.637Z,15.35
2019-02-05T22:20:49.830Z,13.72
2019-02-05T22:25:54.424Z,10.95
2019-02-05T22:30:58.445Z,13.48
2019-02-05T22:36:02.956Z,9.40
2019-02-05T22:41:06.926Z,12.90
2019-02-05T22:46:10.764Z,10.82
2019-02-05T22:51:15.274Z,12.18
2019-02-05T22:56:19.066Z,11.33
2019-02-05T23:01:46.605Z,11.05
2019-02-05T23:07:20.342Z,12.30
2019-02-05T23:12:28.286Z,11.73
2019-02-05T23:17:32.011Z,14.13
2019-02-05T23:22:36.432Z,12.25
2019-02-05T23:27:40.860Z,12.85
2019-02-05T23:32:44.887Z,12.65
2019-02-05T23:37:48.712Z,14.07
2019-02-05T23:42:52.993Z,12.43
2019-02-05T23:47:57.173Z,12.40
2019-02-05T23:53:01.869Z,12.40
2019-02-05T23:58:05.696Z,13.58
